Rickmers Seoul — V7EI5 — position and weather

sailwx.info

Track history (hours):
 
Tides and Currents Weather Stations Pressure Air Temp Water Temp Dewpoint Dewpoint Depression Visibility Wind Speed Wind Dir Waves Ship Positions

Rickmers Seoul

Last reported at 2014-Jul-22 23:33 UTC. Time now 2014-Jul-22 23:39 UTC.
Position N 38°57' E 001°04'.

Length 192.9 m; beam 27.8 m; draft 11.2 m.

Type: Ship (hazmat cat A). MMSI: 538001809.

Date/timePositionNaut miles runAvg speedWind from/ knotsBaromVisibWave heightAir tempDewpointWater temp
2014-Jul-22 23:33N 38°57' E 001°04'1312.3
2014-Jul-22 22:28N 38°47' E 000°53'1212.3
2014-Jul-22 21:29N 38°38' E 000°43'1112.0
2014-Jul-22 20:33N 38°30' E 000°33'2811.8
2014-Jul-22 18:11N 38°09' E 000°09'711.6
2014-Jul-22 17:33N 38°04' E 000°03'1212.0
2014-Jul-22 16:33N 37°55' W 000°07'1212.0
2014-Jul-22 15:33N 37°46' W 000°17'1212.0
2014-Jul-22 14:33N 37°36' W 000°27'1212.1
2014-Jul-22 13:30N 37°28' W 000°38'1212.2
2014-Jul-22 12:33N 37°20' W 000°49'1212.0
2014-Jul-22 11:33N 37°12' W 001°00'1312.3
2014-Jul-22 10:29N 37°04' W 001°13'1111.6
2014-Jul-22 09:33N 36°56' W 001°23'1211.8
2014-Jul-22 08:33N 36°48' W 001°34'2215.1
2014-Jul-22 07:08N 36°34' W 001°54'17012.6
2014-Jul-21 17:33N 35°58' W 005°20'14912.2
2014-Jul-21 05:18N 36°22' W 008°23'912.2
2014-Jul-21 04:33N 36°24' W 008°34'1612.0
2014-Jul-21 03:11N 36°29' W 008°53'2311.9
2014-Jul-21 01:13N 36°37' W 009°21'1212.6
2014-Jul-21 00:15N 36°45' W 009°32'912.3
2014-Jul-20 23:33N 36°54' W 009°35'2612.6
2014-Jul-20 21:31N 37°19' W 009°42'1312.9
2014-Jul-20 20:33N 37°31' W 009°46'1312.8
2014-Jul-20 19:33N 37°43' W 009°50'1312.7
2014-Jul-20 18:33N 37°56' W 009°53'1312.7
2014-Jul-20 17:33N 38°08' W 009°56'1513.0
2014-Jul-20 16:22N 38°23' W 010°01'  
2014-Jul-18 01:20N 49°34' W 004°03'4211.2
2014-Jul-17 21:33N 49°55' W 003°06'4113.3
2014-Jul-17 18:28N 50°07' W 002°05'1516.2
2014-Jul-17 17:33N 50°11' W 001°43'1616.0
2014-Jul-17 16:33N 50°16' W 001°19'1514.9
2014-Jul-17 15:34N 50°20' W 000°57'1312.6
2014-Jul-17 14:34N 50°23' W 000°38'1211.5
2014-Jul-17 13:34N 50°26' W 000°21'1110.6
2014-Jul-17 12:33N 50°30' W 000°05'1010.2
2014-Jul-17 11:33N 50°33' E 000°10'1111.1
2014-Jul-17 10:33N 50°35' E 000°28'1312.7
2014-Jul-17 09:33N 50°41' E 000°45'1414.1
2014-Jul-17 08:32N 50°50' E 001°03'1313.8
2014-Jul-17 07:33N 50°60' E 001°18'1413.6
2014-Jul-17 06:33N 51°08' E 001°35'1010.1
2014-Jul-17 05:33N 51°15' E 001°47'10 9.7
2014-Jul-17 04:33N 51°24' E 001°53'1010.1
2014-Jul-17 03:33N 51°32' E 002°02'1111.4
2014-Jul-17 02:33N 51°40' E 002°15'1312.5
2014-Jul-17 01:30N 51°50' E 002°30'1413.5
2014-Jul-17 00:28N 51°60' E 002°46'1313.8
2014-Jul-16 23:34N 52°10' E 002°57'1413.6
2014-Jul-16 22:33N 52°22' E 003°09'1212.4
2014-Jul-16 21:34N 52°31' E 003°23'1211.8
2014-Jul-16 20:33N 52°40' E 003°34'1111.1
2014-Jul-16 19:33N 52°49' E 003°46'1110.7
2014-Jul-16 18:33N 52°57' E 003°57'1111.0
2014-Jul-16 17:33N 53°04' E 004°11'1511.9
2014-Jul-16 16:16N 53°15' E 004°29'912.8
2014-Jul-16 15:33N 53°24' E 004°35'1312.9
2014-Jul-16 14:33N 53°31' E 004°52'1313.2
2014-Jul-16 13:33N 53°36' E 005°12'1212.3
2014-Jul-16 12:33N 53°40' E 005°32'1111.5
2014-Jul-16 11:33N 53°44' E 005°51'6011.6
2014-Jul-16 06:22N 53°60' E 007°29'1012.8
2014-Jul-16 05:33N 54°02' E 007°46'1313.0
2014-Jul-16 04:33N 54°01' E 008°08'1515.2
2014-Jul-16 03:33N 53°58' E 008°33'1211.7
2014-Jul-16 02:34N 53°50' E 008°48'1212.0
2014-Jul-16 01:34N 53°53' E 009°08'6 6.2
2014-Jul-16 00:33N 53°51' E 009°18'1313.5
2014-Jul-15 23:33N 53°40' E 009°31'1211.7
2014-Jul-15 22:33N 53°33' E 009°47'7 7.1
2014-Jul-15 21:33N 53°30' E 009°58'1 1.1
2014-Jul-15 20:32N 53°29' E 009°59'0 0.0
2014-Jul-15 19:29N 53°29' E 009°59'0 0.0
2014-Jul-15 18:32N 53°29' E 009°59'0 0.0
2014-Jul-15 17:32N 53°29' E 009°59'0 0.0
2014-Jul-15 16:32N 53°29' E 009°59'0 0.0
2014-Jul-15 15:32N 53°29' E 009°59'0 0.0
2014-Jul-15 14:32N 53°29' E 009°59'0 0.0
2014-Jul-15 13:32N 53°29' E 009°59'0 0.0
2014-Jul-15 12:32N 53°29' E 009°59'0 0.0
2014-Jul-15 11:32N 53°29' E 009°59'0 0.0
2014-Jul-15 10:32N 53°29' E 009°59'0 0.0
2014-Jul-15 09:32N 53°29' E 009°59'0 0.0
2014-Jul-15 08:32N 53°29' E 009°59'0 0.0
2014-Jul-15 07:32N 53°29' E 009°59'0 0.0
2014-Jul-15 06:29N 53°29' E 009°59'0 0.0
2014-Jul-15 05:29N 53°29' E 009°59'0 0.0
2014-Jul-15 04:32N 53°29' E 009°59'0 0.0
2014-Jul-15 03:29N 53°29' E 009°59'0 0.0
2014-Jul-15 02:32N 53°29' E 009°59'0 0.0
2014-Jul-15 01:32N 53°29' E 009°59'0 0.0
2014-Jul-15 00:32N 53°29' E 009°59'0 0.0
2014-Jul-14 23:32N 53°29' E 009°59'0 0.0
2014-Jul-14 22:32N 53°29' E 009°59'0 0.0
2014-Jul-14 21:32N 53°29' E 009°59'0 0.0
2014-Jul-14 20:32N 53°29' E 009°59'0 0.0
2014-Jul-14 19:32N 53°29' E 009°59'0 0.0
2014-Jul-14 18:29N 53°29' E 009°59'0 0.0
2014-Jul-14 17:32N 53°29' E 009°59'0 0.0
2014-Jul-14 16:32N 53°29' E 009°59'0 0.0
2014-Jul-14 15:32N 53°29' E 009°59'0 0.0
2014-Jul-14 14:32N 53°29' E 009°59'0 0.0
2014-Jul-14 13:32N 53°29' E 009°59'0 0.0
2014-Jul-14 12:26N 53°29' E 009°59'0 0.0
2014-Jul-14 11:32N 53°29' E 009°59'0 0.0
2014-Jul-14 10:26N 53°29' E 009°59'0 0.0
2014-Jul-14 09:32N 53°29' E 009°59'0 0.0
2014-Jul-14 08:32N 53°29' E 009°59'0 0.0
2014-Jul-14 07:32N 53°29' E 009°59'0 0.0
2014-Jul-14 06:29N 53°29' E 009°59'0 0.0
2014-Jul-14 05:26N 53°29' E 009°59'0 0.0
2014-Jul-14 04:32N 53°29' E 009°59'0 0.0
2014-Jul-14 03:26N 53°29' E 009°59'0 0.0
2014-Jul-14 02:26N 53°29' E 009°59'0 0.0
2014-Jul-14 01:32N 53°29' E 009°59'0 0.0
2014-Jul-14 00:32N 53°29' E 009°59'0 0.0
2014-Jul-13 23:32N 53°29' E 009°59'0 0.0
2014-Jul-13 22:32N 53°29' E 009°59'0 0.0
2014-Jul-13 21:32N 53°29' E 009°59'0 0.0
2014-Jul-13 20:29N 53°29' E 009°59'0 0.0
2014-Jul-13 19:32N 53°29' E 009°59'0 0.0
2014-Jul-13 18:32N 53°29' E 009°59'0 0.0
2014-Jul-13 17:32N 53°29' E 009°59'0 0.0
2014-Jul-13 16:32N 53°29' E 009°59'0 0.0
2014-Jul-13 15:32N 53°29' E 009°59'0 0.0
2014-Jul-13 14:29N 53°29' E 009°59'0 0.0
2014-Jul-13 13:32N 53°29' E 009°59'0 0.0
2014-Jul-13 12:29N 53°29' E 009°59'0 0.0
2014-Jul-13 11:26N 53°29' E 009°59'0 0.0
2014-Jul-13 10:32N 53°29' E 009°59'0 0.0
2014-Jul-13 09:26N 53°29' E 009°59'0 0.0
2014-Jul-13 08:32N 53°29' E 009°59'0 0.0
2014-Jul-13 07:32N 53°29' E 009°59'0 0.0
2014-Jul-13 06:26N 53°29' E 009°59'0 0.0
2014-Jul-13 05:32N 53°29' E 009°59'0 0.0
2014-Jul-13 04:26N 53°29' E 009°59'0 0.0
2014-Jul-13 03:32N 53°29' E 009°59'0 0.0
2014-Jul-13 02:32N 53°29' E 009°59'0 0.0
2014-Jul-13 01:32N 53°29' E 009°59'0 0.0
2014-Jul-13 00:32N 53°29' E 009°59'0 0.0
2014-Jul-12 23:32N 53°29' E 009°59'0 0.0
2014-Jul-12 22:32N 53°29' E 009°59'  
Track history (hours):
 
Tides and Currents Weather Stations Pressure Air Temp Water Temp Dewpoint Dewpoint Depression Visibility Wind Speed Wind Dir Waves Ship Positions

Rickmers Seoul

Last reported at 2014-Jul-22 23:33 UTC. Time now 2014-Jul-22 23:39 UTC.
Position N 38°57' E 001°04'.

Length 192.9 m; beam 27.8 m; draft 11.2 m.

Type: Ship (hazmat cat A). MMSI: 538001809.

Date/timePositionNaut miles runAvg speedWind from/ knotsBaromVisibWave heightAir tempDewpointWater temp
2014-Jul-22 23:33N 38°57' E 001°04'1312.3
2014-Jul-22 22:28N 38°47' E 000°53'1212.3
2014-Jul-22 21:29N 38°38' E 000°43'1112.0
2014-Jul-22 20:33N 38°30' E 000°33'2811.8
2014-Jul-22 18:11N 38°09' E 000°09'711.6
2014-Jul-22 17:33N 38°04' E 000°03'1212.0
2014-Jul-22 16:33N 37°55' W 000°07'1212.0
2014-Jul-22 15:33N 37°46' W 000°17'1212.0
2014-Jul-22 14:33N 37°36' W 000°27'1212.1
2014-Jul-22 13:30N 37°28' W 000°38'1212.2
2014-Jul-22 12:33N 37°20' W 000°49'1212.0
2014-Jul-22 11:33N 37°12' W 001°00'1312.3
2014-Jul-22 10:29N 37°04' W 001°13'1111.6
2014-Jul-22 09:33N 36°56' W 001°23'1211.8
2014-Jul-22 08:33N 36°48' W 001°34'2215.1
2014-Jul-22 07:08N 36°34' W 001°54'17012.6
2014-Jul-21 17:33N 35°58' W 005°20'14912.2
2014-Jul-21 05:18N 36°22' W 008°23'912.2
2014-Jul-21 04:33N 36°24' W 008°34'1612.0
2014-Jul-21 03:11N 36°29' W 008°53'2311.9
2014-Jul-21 01:13N 36°37' W 009°21'1212.6
2014-Jul-21 00:15N 36°45' W 009°32'912.3
2014-Jul-20 23:33N 36°54' W 009°35'2612.6
2014-Jul-20 21:31N 37°19' W 009°42'1312.9
2014-Jul-20 20:33N 37°31' W 009°46'1312.8
2014-Jul-20 19:33N 37°43' W 009°50'1312.7
2014-Jul-20 18:33N 37°56' W 009°53'1312.7
2014-Jul-20 17:33N 38°08' W 009°56'1513.0
2014-Jul-20 16:22N 38°23' W 010°01'  
2014-Jul-18 01:20N 49°34' W 004°03'4211.2
2014-Jul-17 21:33N 49°55' W 003°06'4113.3
2014-Jul-17 18:28N 50°07' W 002°05'1516.2
2014-Jul-17 17:33N 50°11' W 001°43'1616.0
2014-Jul-17 16:33N 50°16' W 001°19'1514.9
2014-Jul-17 15:34N 50°20' W 000°57'1312.6
2014-Jul-17 14:34N 50°23' W 000°38'1211.5
2014-Jul-17 13:34N 50°26' W 000°21'1110.6
2014-Jul-17 12:33N 50°30' W 000°05'1010.2
2014-Jul-17 11:33N 50°33' E 000°10'1111.1
2014-Jul-17 10:33N 50°35' E 000°28'1312.7
2014-Jul-17 09:33N 50°41' E 000°45'1414.1
2014-Jul-17 08:32N 50°50' E 001°03'1313.8
2014-Jul-17 07:33N 50°60' E 001°18'1413.6
2014-Jul-17 06:33N 51°08' E 001°35'1010.1
2014-Jul-17 05:33N 51°15' E 001°47'10 9.7
2014-Jul-17 04:33N 51°24' E 001°53'1010.1
2014-Jul-17 03:33N 51°32' E 002°02'1111.4
2014-Jul-17 02:33N 51°40' E 002°15'1312.5
2014-Jul-17 01:30N 51°50' E 002°30'1413.5
2014-Jul-17 00:28N 51°60' E 002°46'1313.8
2014-Jul-16 23:34N 52°10' E 002°57'1413.6
2014-Jul-16 22:33N 52°22' E 003°09'1212.4
2014-Jul-16 21:34N 52°31' E 003°23'1211.8
2014-Jul-16 20:33N 52°40' E 003°34'1111.1
2014-Jul-16 19:33N 52°49' E 003°46'1110.7
2014-Jul-16 18:33N 52°57' E 003°57'1111.0
2014-Jul-16 17:33N 53°04' E 004°11'1511.9
2014-Jul-16 16:16N 53°15' E 004°29'912.8
2014-Jul-16 15:33N 53°24' E 004°35'1312.9
2014-Jul-16 14:33N 53°31' E 004°52'1313.2
2014-Jul-16 13:33N 53°36' E 005°12'1212.3
2014-Jul-16 12:33N 53°40' E 005°32'1111.5
2014-Jul-16 11:33N 53°44' E 005°51'6011.6
2014-Jul-16 06:22N 53°60' E 007°29'1012.8
2014-Jul-16 05:33N 54°02' E 007°46'1313.0
2014-Jul-16 04:33N 54°01' E 008°08'1515.2
2014-Jul-16 03:33N 53°58' E 008°33'1211.7
2014-Jul-16 02:34N 53°50' E 008°48'1212.0
2014-Jul-16 01:34N 53°53' E 009°08'6 6.2
2014-Jul-16 00:33N 53°51' E 009°18'1313.5
2014-Jul-15 23:33N 53°40' E 009°31'1211.7
2014-Jul-15 22:33N 53°33' E 009°47'7 7.1
2014-Jul-15 21:33N 53°30' E 009°58'1 1.1
2014-Jul-15 20:32N 53°29' E 009°59'0 0.0
2014-Jul-15 19:29N 53°29' E 009°59'0 0.0
2014-Jul-15 18:32N 53°29' E 009°59'0 0.0
2014-Jul-15 17:32N 53°29' E 009°59'0 0.0
2014-Jul-15 16:32N 53°29' E 009°59'0 0.0
2014-Jul-15 15:32N 53°29' E 009°59'0 0.0
2014-Jul-15 14:32N 53°29' E 009°59'0 0.0
2014-Jul-15 13:32N 53°29' E 009°59'0 0.0
2014-Jul-15 12:32N 53°29' E 009°59'0 0.0
2014-Jul-15 11:32N 53°29' E 009°59'0 0.0
2014-Jul-15 10:32N 53°29' E 009°59'0 0.0
2014-Jul-15 09:32N 53°29' E 009°59'0 0.0
2014-Jul-15 08:32N 53°29' E 009°59'0 0.0
2014-Jul-15 07:32N 53°29' E 009°59'0 0.0
2014-Jul-15 06:29N 53°29' E 009°59'0 0.0
2014-Jul-15 05:29N 53°29' E 009°59'0 0.0
2014-Jul-15 04:32N 53°29' E 009°59'0 0.0
2014-Jul-15 03:29N 53°29' E 009°59'0 0.0
2014-Jul-15 02:32N 53°29' E 009°59'0 0.0
2014-Jul-15 01:32N 53°29' E 009°59'0 0.0
2014-Jul-15 00:32N 53°29' E 009°59'0 0.0
2014-Jul-14 23:32N 53°29' E 009°59'0 0.0
2014-Jul-14 22:32N 53°29' E 009°59'0 0.0
2014-Jul-14 21:32N 53°29' E 009°59'0 0.0
2014-Jul-14 20:32N 53°29' E 009°59'0 0.0
2014-Jul-14 19:32N 53°29' E 009°59'0 0.0
2014-Jul-14 18:29N 53°29' E 009°59'0 0.0
2014-Jul-14 17:32N 53°29' E 009°59'0 0.0
2014-Jul-14 16:32N 53°29' E 009°59'0 0.0
2014-Jul-14 15:32N 53°29' E 009°59'0 0.0
2014-Jul-14 14:32N 53°29' E 009°59'0 0.0
2014-Jul-14 13:32N 53°29' E 009°59'0 0.0
2014-Jul-14 12:26N 53°29' E 009°59'0 0.0
2014-Jul-14 11:32N 53°29' E 009°59'0 0.0
2014-Jul-14 10:26N 53°29' E 009°59'0 0.0
2014-Jul-14 09:32N 53°29' E 009°59'0 0.0
2014-Jul-14 08:32N 53°29' E 009°59'0 0.0
2014-Jul-14 07:32N 53°29' E 009°59'0 0.0
2014-Jul-14 06:29N 53°29' E 009°59'0 0.0
2014-Jul-14 05:26N 53°29' E 009°59'0 0.0
2014-Jul-14 04:32N 53°29' E 009°59'0 0.0
2014-Jul-14 03:26N 53°29' E 009°59'0 0.0
2014-Jul-14 02:26N 53°29' E 009°59'0 0.0
2014-Jul-14 01:32N 53°29' E 009°59'0 0.0
2014-Jul-14 00:32N 53°29' E 009°59'0 0.0
2014-Jul-13 23:32N 53°29' E 009°59'0 0.0
2014-Jul-13 22:32N 53°29' E 009°59'0 0.0
2014-Jul-13 21:32N 53°29' E 009°59'0 0.0
2014-Jul-13 20:29N 53°29' E 009°59'0 0.0
2014-Jul-13 19:32N 53°29' E 009°59'0 0.0
2014-Jul-13 18:32N 53°29' E 009°59'0 0.0
2014-Jul-13 17:32N 53°29' E 009°59'0 0.0
2014-Jul-13 16:32N 53°29' E 009°59'0 0.0
2014-Jul-13 15:32N 53°29' E 009°59'0 0.0
2014-Jul-13 14:29N 53°29' E 009°59'0 0.0
2014-Jul-13 13:32N 53°29' E 009°59'0 0.0
2014-Jul-13 12:29N 53°29' E 009°59'0 0.0
2014-Jul-13 11:26N 53°29' E 009°59'0 0.0
2014-Jul-13 10:32N 53°29' E 009°59'0 0.0
2014-Jul-13 09:26N 53°29' E 009°59'0 0.0
2014-Jul-13 08:32N 53°29' E 009°59'0 0.0
2014-Jul-13 07:32N 53°29' E 009°59'0 0.0
2014-Jul-13 06:26N 53°29' E 009°59'0 0.0
2014-Jul-13 05:32N 53°29' E 009°59'0 0.0
2014-Jul-13 04:26N 53°29' E 009°59'0 0.0
2014-Jul-13 03:32N 53°29' E 009°59'0 0.0
2014-Jul-13 02:32N 53°29' E 009°59'0 0.0
2014-Jul-13 01:32N 53°29' E 009°59'0 0.0
2014-Jul-13 00:32N 53°29' E 009°59'0 0.0
2014-Jul-12 23:32N 53°29' E 009°59'0 0.0
2014-Jul-12 22:32N 53°29' E 009°59'  

Dump ship's entire track history